sensor_id;sensor_type;location;lat;lon;timestamp;temperature;humidity
26224;DHT22;14820;48.682;8.890;2023-05-07T00:02:24;11.30;99.90
26224;DHT22;14820;48.682;8.890;2023-05-07T00:04:50;11.20;99.90
26224;DHT22;14820;48.682;8.890;2023-05-07T00:07:17;11.20;99.90
26224;DHT22;14820;48.682;8.890;2023-05-07T00:09:43;11.20;99.90
26224;DHT22;14820;48.682;8.890;2023-05-07T00:12:09;11.20;99.90
26224;DHT22;14820;48.682;8.890;2023-05-07T00:14:34;11.20;99.90
26224;DHT22;14820;48.682;8.890;2023-05-07T00:17:00;11.30;99.90
26224;DHT22;14820;48.682;8.890;2023-05-07T00:19:26;11.20;99.90
26224;DHT22;14820;48.682;8.890;2023-05-07T00:21:51;11.20;99.90
26224;DHT22;14820;48.682;8.890;2023-05-07T00:24:19;11.20;99.90
26224;DHT22;14820;48.682;8.890;2023-05-07T00:26:45;11.20;99.90
26224;DHT22;14820;48.682;8.890;2023-05-07T00:29:10;11.20;99.90
26224;DHT22;14820;48.682;8.890;2023-05-07T00:31:36;11.20;99.90
26224;DHT22;14820;48.682;8.890;2023-05-07T00:34:02;11.20;99.90
26224;DHT22;14820;48.682;8.890;2023-05-07T00:36:27;11.20;99.90
26224;DHT22;14820;48.682;8.890;2023-05-07T00:38:54;11.20;99.90
26224;DHT22;14820;48.682;8.890;2023-05-07T00:41:20;11.20;99.90
26224;DHT22;14820;48.682;8.890;2023-05-07T00:43:46;11.20;99.90
26224;DHT22;14820;48.682;8.890;2023-05-07T00:46:13;11.20;99.90
26224;DHT22;14820;48.682;8.890;2023-05-07T00:48:40;11.10;99.90
26224;DHT22;14820;48.682;8.890;2023-05-07T00:51:05;11.10;99.90
26224;DHT22;14820;48.682;8.890;2023-05-07T00:53:31;11.00;99.90
26224;DHT22;14820;48.682;8.890;2023-05-07T00:55:57;11.00;99.90
26224;DHT22;14820;48.682;8.890;2023-05-07T00:58:23;11.00;99.90
26224;DHT22;14820;48.682;8.890;2023-05-07T01:00:49;11.00;99.90
26224;DHT22;14820;48.682;8.890;2023-05-07T01:03:15;11.00;99.90
26224;DHT22;14820;48.682;8.890;2023-05-07T01:05:41;11.00;99.90
26224;DHT22;14820;48.682;8.890;2023-05-07T01:08:08;11.00;99.90
26224;DHT22;14820;48.682;8.890;2023-05-07T01:10:34;11.00;99.90
26224;DHT22;14820;48.682;8.890;2023-05-07T01:13:00;11.00;99.90
26224;DHT22;14820;48.682;8.890;2023-05-07T01:15:26;11.00;99.90
26224;DHT22;14820;48.682;8.890;2023-05-07T01:17:52;11.00;99.90
26224;DHT22;14820;48.682;8.890;2023-05-07T01:20:18;11.00;99.90
26224;DHT22;14820;48.682;8.890;2023-05-07T01:22:44;11.00;99.90
26224;DHT22;14820;48.682;8.890;2023-05-07T01:25:11;11.00;99.90
26224;DHT22;14820;48.682;8.890;2023-05-07T01:27:37;10.90;99.90
26224;DHT22;14820;48.682;8.890;2023-05-07T01:30:06;10.90;99.90
26224;DHT22;14820;48.682;8.890;2023-05-07T01:32:45;10.90;99.90
26224;DHT22;14820;48.682;8.890;2023-05-07T01:35:19;10.90;99.90
26224;DHT22;14820;48.682;8.890;2023-05-07T01:37:46;10.90;99.90
26224;DHT22;14820;48.682;8.890;2023-05-07T01:40:13;10.90;99.90
26224;DHT22;14820;48.682;8.890;2023-05-07T01:42:39;10.90;99.90
26224;DHT22;14820;48.682;8.890;2023-05-07T01:45:06;10.90;99.90
26224;DHT22;14820;48.682;8.890;2023-05-07T01:47:32;10.90;99.90
26224;DHT22;14820;48.682;8.890;2023-05-07T01:49:58;10.90;99.90
26224;DHT22;14820;48.682;8.890;2023-05-07T01:52:24;10.90;99.90
26224;DHT22;14820;48.682;8.890;2023-05-07T01:54:50;10.90;99.90
26224;DHT22;14820;48.682;8.890;2023-05-07T01:57:16;10.80;99.90
26224;DHT22;14820;48.682;8.890;2023-05-07T01:59:42;10.80;99.90
26224;DHT22;14820;48.682;8.890;2023-05-07T02:02:07;10.80;99.90
26224;DHT22;14820;48.682;8.890;2023-05-07T02:04:33;10.80;99.90
26224;DHT22;14820;48.682;8.890;2023-05-07T02:06:59;10.80;99.90
26224;DHT22;14820;48.682;8.890;2023-05-07T02:09:24;10.90;99.90
26224;DHT22;14820;48.682;8.890;2023-05-07T02:11:50;10.80;99.90
26224;DHT22;14820;48.682;8.890;2023-05-07T02:14:15;10.80;99.90
26224;DHT22;14820;48.682;8.890;2023-05-07T02:16:41;10.80;99.90
26224;DHT22;14820;48.682;8.890;2023-05-07T02:19:07;10.70;99.90
26224;DHT22;14820;48.682;8.890;2023-05-07T02:21:32;10.70;99.90
26224;DHT22;14820;48.682;8.890;2023-05-07T02:23:58;10.70;99.90
26224;DHT22;14820;48.682;8.890;2023-05-07T02:26:24;10.70;99.90
26224;DHT22;14820;48.682;8.890;2023-05-07T02:28:50;10.70;99.90
26224;DHT22;14820;48.682;8.890;2023-05-07T02:31:16;10.60;99.90
26224;DHT22;14820;48.682;8.890;2023-05-07T02:33:41;10.70;99.90
26224;DHT22;14820;48.682;8.890;2023-05-07T02:36:08;10.60;99.90
26224;DHT22;14820;48.682;8.890;2023-05-07T02:38:34;10.60;99.90
26224;DHT22;14820;48.682;8.890;2023-05-07T02:41:00;10.60;99.90
26224;DHT22;14820;48.682;8.890;2023-05-07T02:43:26;10.60;99.90
26224;DHT22;14820;48.682;8.890;2023-05-07T02:46:02;10.60;99.90
26224;DHT22;14820;48.682;8.890;2023-05-07T02:48:28;10.50;99.90
26224;DHT22;14820;48.682;8.890;2023-05-07T02:50:54;10.50;99.90
26224;DHT22;14820;48.682;8.890;2023-05-07T02:53:19;10.50;99.90
26224;DHT22;14820;48.682;8.890;2023-05-07T02:55:45;10.40;99.90
26224;DHT22;14820;48.682;8.890;2023-05-07T02:58:10;10.40;99.90
26224;DHT22;14820;48.682;8.890;2023-05-07T03:00:36;10.40;99.90
26224;DHT22;14820;48.682;8.890;2023-05-07T03:03:02;10.40;99.90
26224;DHT22;14820;48.682;8.890;2023-05-07T03:05:27;10.40;99.90
26224;DHT22;14820;48.682;8.890;2023-05-07T03:07:53;10.40;99.90
26224;DHT22;14820;48.682;8.890;2023-05-07T03:10:19;10.40;99.90
26224;DHT22;14820;48.682;8.890;2023-05-07T03:12:44;10.40;99.90
26224;DHT22;14820;48.682;8.890;2023-05-07T03:15:10;10.30;99.90
26224;DHT22;14820;48.682;8.890;2023-05-07T03:17:38;10.30;99.90
26224;DHT22;14820;48.682;8.890;2023-05-07T03:20:04;10.20;99.90
26224;DHT22;14820;48.682;8.890;2023-05-07T03:22:30;10.20;99.90
26224;DHT22;14820;48.682;8.890;2023-05-07T03:24:55;10.20;99.90
26224;DHT22;14820;48.682;8.890;2023-05-07T03:27:21;10.10;99.90
26224;DHT22;14820;48.682;8.890;2023-05-07T03:29:47;10.10;99.90
26224;DHT22;14820;48.682;8.890;2023-05-07T03:32:13;10.00;99.90
26224;DHT22;14820;48.682;8.890;2023-05-07T03:34:38;10.00;99.90
26224;DHT22;14820;48.682;8.890;2023-05-07T03:37:04;10.00;99.90
26224;DHT22;14820;48.682;8.890;2023-05-07T03:39:30;10.00;99.90
26224;DHT22;14820;48.682;8.890;2023-05-07T03:41:56;10.00;99.90
26224;DHT22;14820;48.682;8.890;2023-05-07T03:44:22;10.00;99.90
26224;DHT22;14820;48.682;8.890;2023-05-07T03:46:47;10.00;99.90
26224;DHT22;14820;48.682;8.890;2023-05-07T03:49:13;9.90;99.90
26224;DHT22;14820;48.682;8.890;2023-05-07T03:51:38;9.90;99.90
26224;DHT22;14820;48.682;8.890;2023-05-07T03:54:04;9.90;99.90
26224;DHT22;14820;48.682;8.890;2023-05-07T03:56:30;9.90;99.90
26224;DHT22;14820;48.682;8.890;2023-05-07T03:58:56;9.90;99.90
26224;DHT22;14820;48.682;8.890;2023-05-07T04:01:22;9.80;99.90
26224;DHT22;14820;48.682;8.890;2023-05-07T04:03:47;9.80;99.90
26224;DHT22;14820;48.682;8.890;2023-05-07T04:06:15;9.80;99.90
26224;DHT22;14820;48.682;8.890;2023-05-07T04:08:41;9.70;99.90
26224;DHT22;14820;48.682;8.890;2023-05-07T04:11:06;9.70;99.90
26224;DHT22;14820;48.682;8.890;2023-05-07T04:13:32;9.80;99.90
26224;DHT22;14820;48.682;8.890;2023-05-07T04:15:58;9.80;99.90
26224;DHT22;14820;48.682;8.890;2023-05-07T04:18:24;9.70;99.90
26224;DHT22;14820;48.682;8.890;2023-05-07T04:20:50;9.70;99.90
26224;DHT22;14820;48.682;8.890;2023-05-07T04:23:15;9.70;99.90
26224;DHT22;14820;48.682;8.890;2023-05-07T04:25:41;9.60;99.90
26224;DHT22;14820;48.682;8.890;2023-05-07T04:28:07;9.70;99.90
26224;DHT22;14820;48.682;8.890;2023-05-07T04:30:32;9.70;99.90
26224;DHT22;14820;48.682;8.890;2023-05-07T04:32:58;9.70;99.90
26224;DHT22;14820;48.682;8.890;2023-05-07T04:35:24;9.70;99.90
26224;DHT22;14820;48.682;8.890;2023-05-07T04:37:49;9.70;99.90
26224;DHT22;14820;48.682;8.890;2023-05-07T04:40:15;9.60;99.90
26224;DHT22;14820;48.682;8.890;2023-05-07T04:42:41;9.60;99.90
26224;DHT22;14820;48.682;8.890;2023-05-07T04:45:07;9.60;99.90
26224;DHT22;14820;48.682;8.890;2023-05-07T04:47:34;9.70;99.90
26224;DHT22;14820;48.682;8.890;2023-05-07T04:49:59;9.70;99.90
26224;DHT22;14820;48.682;8.890;2023-05-07T04:52:25;9.60;99.90
26224;DHT22;14820;48.682;8.890;2023-05-07T04:54:51;9.60;99.90
26224;DHT22;14820;48.682;8.890;2023-05-07T04:57:16;9.60;99.90
26224;DHT22;14820;48.682;8.890;2023-05-07T04:59:43;9.70;99.90
26224;DHT22;14820;48.682;8.890;2023-05-07T05:02:10;9.70;99.90
26224;DHT22;14820;48.682;8.890;2023-05-07T05:04:36;9.70;99.90
26224;DHT22;14820;48.682;8.890;2023-05-07T05:07:02;9.70;99.90
26224;DHT22;14820;48.682;8.890;2023-05-07T05:09:31;9.80;99.90
26224;DHT22;14820;48.682;8.890;2023-05-07T05:11:57;9.80;99.90
26224;DHT22;14820;48.682;8.890;2023-05-07T05:14:22;9.80;99.90
26224;DHT22;14820;48.682;8.890;2023-05-07T05:16:48;9.90;99.90
26224;DHT22;14820;48.682;8.890;2023-05-07T05:19:14;9.90;99.90
26224;DHT22;14820;48.682;8.890;2023-05-07T05:21:39;10.00;99.90
26224;DHT22;14820;48.682;8.890;2023-05-07T05:24:05;10.10;99.90
26224;DHT22;14820;48.682;8.890;2023-05-07T05:26:31;10.20;99.90
26224;DHT22;14820;48.682;8.890;2023-05-07T05:28:56;10.20;99.90
26224;DHT22;14820;48.682;8.890;2023-05-07T05:31:22;10.30;99.90
26224;DHT22;14820;48.682;8.890;2023-05-07T05:33:47;10.40;99.90
26224;DHT22;14820;48.682;8.890;2023-05-07T05:36:13;10.40;99.90
26224;DHT22;14820;48.682;8.890;2023-05-07T05:38:39;10.50;99.90
26224;DHT22;14820;48.682;8.890;2023-05-07T05:41:05;10.50;99.90
26224;DHT22;14820;48.682;8.890;2023-05-07T05:43:31;10.60;99.90
26224;DHT22;14820;48.682;8.890;2023-05-07T05:45:57;10.70;99.90
26224;DHT22;14820;48.682;8.890;2023-05-07T05:48:23;10.70;99.90
26224;DHT22;14820;48.682;8.890;2023-05-07T05:50:48;10.80;99.90
26224;DHT22;14820;48.682;8.890;2023-05-07T05:53:14;10.90;99.90
26224;DHT22;14820;48.682;8.890;2023-05-07T05:55:41;10.90;99.90
26224;DHT22;14820;48.682;8.890;2023-05-07T05:58:07;11.00;99.90
26224;DHT22;14820;48.682;8.890;2023-05-07T06:00:33;11.10;99.90
26224;DHT22;14820;48.682;8.890;2023-05-07T06:02:58;11.20;99.90
26224;DHT22;14820;48.682;8.890;2023-05-07T06:05:24;11.30;99.90
26224;DHT22;14820;48.682;8.890;2023-05-07T06:07:50;11.40;99.90
26224;DHT22;14820;48.682;8.890;2023-05-07T06:10:15;11.50;99.90
26224;DHT22;14820;48.682;8.890;2023-05-07T06:12:41;11.60;99.90
26224;DHT22;14820;48.682;8.890;2023-05-07T06:15:07;11.70;99.90
26224;DHT22;14820;48.682;8.890;2023-05-07T06:17:32;11.80;99.90
26224;DHT22;14820;48.682;8.890;2023-05-07T06:19:58;11.90;99.90
26224;DHT22;14820;48.682;8.890;2023-05-07T06:22:23;12.00;99.90
26224;DHT22;14820;48.682;8.890;2023-05-07T06:24:50;12.10;99.90
26224;DHT22;14820;48.682;8.890;2023-05-07T06:27:15;12.20;99.90
26224;DHT22;14820;48.682;8.890;2023-05-07T06:29:41;12.30;99.90
26224;DHT22;14820;48.682;8.890;2023-05-07T06:32:11;12.30;99.90
26224;DHT22;14820;48.682;8.890;2023-05-07T06:34:38;12.40;99.90
26224;DHT22;14820;48.682;8.890;2023-05-07T06:37:04;12.50;99.90
26224;DHT22;14820;48.682;8.890;2023-05-07T06:39:30;12.60;99.90
26224;DHT22;14820;48.682;8.890;2023-05-07T06:41:55;12.70;99.90
26224;DHT22;14820;48.682;8.890;2023-05-07T06:44:21;12.80;99.90
26224;DHT22;14820;48.682;8.890;2023-05-07T06:46:46;12.80;99.90
26224;DHT22;14820;48.682;8.890;2023-05-07T06:49:13;13.00;99.90
26224;DHT22;14820;48.682;8.890;2023-05-07T06:51:39;13.10;99.90
26224;DHT22;14820;48.682;8.890;2023-05-07T06:54:05;13.30;99.90
26224;DHT22;14820;48.682;8.890;2023-05-07T06:56:31;13.40;99.90
26224;DHT22;14820;48.682;8.890;2023-05-07T06:58:57;13.50;99.90
26224;DHT22;14820;48.682;8.890;2023-05-07T07:01:23;13.70;99.90
26224;DHT22;14820;48.682;8.890;2023-05-07T07:03:48;13.90;99.90
26224;DHT22;14820;48.682;8.890;2023-05-07T07:06:14;14.10;99.90
26224;DHT22;14820;48.682;8.890;2023-05-07T07:08:40;14.20;99.90
26224;DHT22;14820;48.682;8.890;2023-05-07T07:11:06;14.40;99.90
26224;DHT22;14820;48.682;8.890;2023-05-07T07:13:31;14.50;99.90
26224;DHT22;14820;48.682;8.890;2023-05-07T07:15:57;14.60;99.90
26224;DHT22;14820;48.682;8.890;2023-05-07T07:18:23;14.70;99.90
26224;DHT22;14820;48.682;8.890;2023-05-07T07:20:49;14.80;99.90
26224;DHT22;14820;48.682;8.890;2023-05-07T07:23:14;14.90;99.90
26224;DHT22;14820;48.682;8.890;2023-05-07T07:25:40;15.10;99.90
26224;DHT22;14820;48.682;8.890;2023-05-07T07:28:06;15.20;99.90
26224;DHT22;14820;48.682;8.890;2023-05-07T07:30:32;15.30;99.90
26224;DHT22;14820;48.682;8.890;2023-05-07T07:32:58;15.50;99.90
26224;DHT22;14820;48.682;8.890;2023-05-07T07:35:29;15.50;99.90
26224;DHT22;14820;48.682;8.890;2023-05-07T07:37:54;15.50;99.90
26224;DHT22;14820;48.682;8.890;2023-05-07T07:40:20;15.50;99.90
26224;DHT22;14820;48.682;8.890;2023-05-07T07:42:46;15.50;99.90
26224;DHT22;14820;48.682;8.890;2023-05-07T07:45:11;15.60;99.90
26224;DHT22;14820;48.682;8.890;2023-05-07T07:47:38;15.70;99.90
26224;DHT22;14820;48.682;8.890;2023-05-07T07:50:04;15.70;99.90
26224;DHT22;14820;48.682;8.890;2023-05-07T07:52:31;15.80;99.90
26224;DHT22;14820;48.682;8.890;2023-05-07T07:54:56;16.00;99.90
26224;DHT22;14820;48.682;8.890;2023-05-07T07:57:22;16.10;99.90
26224;DHT22;14820;48.682;8.890;2023-05-07T07:59:49;16.20;99.90
26224;DHT22;14820;48.682;8.890;2023-05-07T08:02:14;16.30;99.90
26224;DHT22;14820;48.682;8.890;2023-05-07T08:04:40;16.50;99.90
26224;DHT22;14820;48.682;8.890;2023-05-07T08:07:07;16.60;99.90
26224;DHT22;14820;48.682;8.890;2023-05-07T08:09:32;16.70;99.90
26224;DHT22;14820;48.682;8.890;2023-05-07T08:11:58;16.70;99.90
26224;DHT22;14820;48.682;8.890;2023-05-07T08:14:24;16.80;99.90
26224;DHT22;14820;48.682;8.890;2023-05-07T08:16:49;16.90;99.90
26224;DHT22;14820;48.682;8.890;2023-05-07T08:19:15;17.00;99.90
26224;DHT22;14820;48.682;8.890;2023-05-07T08:21:41;17.10;99.90
26224;DHT22;14820;48.682;8.890;2023-05-07T08:24:06;17.20;99.90
26224;DHT22;14820;48.682;8.890;2023-05-07T08:26:32;17.30;99.90
26224;DHT22;14820;48.682;8.890;2023-05-07T08:28:58;17.40;99.90
26224;DHT22;14820;48.682;8.890;2023-05-07T08:31:23;17.40;99.90
26224;DHT22;14820;48.682;8.890;2023-05-07T08:33:50;17.50;99.90
26224;DHT22;14820;48.682;8.890;2023-05-07T08:38:41;17.70;99.90
26224;DHT22;14820;48.682;8.890;2023-05-07T08:41:12;17.90;99.90
26224;DHT22;14820;48.682;8.890;2023-05-07T08:43:41;17.90;99.90
26224;DHT22;14820;48.682;8.890;2023-05-07T08:46:09;17.90;99.90
26224;DHT22;14820;48.682;8.890;2023-05-07T08:48:37;17.90;99.90
26224;DHT22;14820;48.682;8.890;2023-05-07T08:51:02;17.90;99.90
26224;DHT22;14820;48.682;8.890;2023-05-07T08:53:28;17.80;99.90
26224;DHT22;14820;48.682;8.890;2023-05-07T08:55:55;17.90;99.90
26224;DHT22;14820;48.682;8.890;2023-05-07T08:58:20;18.00;99.90
26224;DHT22;14820;48.682;8.890;2023-05-07T09:00:47;18.10;99.90
26224;DHT22;14820;48.682;8.890;2023-05-07T09:03:12;18.20;99.90
26224;DHT22;14820;48.682;8.890;2023-05-07T09:05:39;18.30;99.90
26224;DHT22;14820;48.682;8.890;2023-05-07T09:08:07;18.40;99.90
26224;DHT22;14820;48.682;8.890;2023-05-07T09:10:34;18.40;99.90
26224;DHT22;14820;48.682;8.890;2023-05-07T09:12:59;18.60;99.90
26224;DHT22;14820;48.682;8.890;2023-05-07T09:15:26;18.70;99.90
26224;DHT22;14820;48.682;8.890;2023-05-07T09:17:53;18.90;99.90
26224;DHT22;14820;48.682;8.890;2023-05-07T09:20:19;18.90;99.90
26224;DHT22;14820;48.682;8.890;2023-05-07T09:22:44;19.00;99.90
26224;DHT22;14820;48.682;8.890;2023-05-07T09:25:10;19.10;99.90
26224;DHT22;14820;48.682;8.890;2023-05-07T09:27:37;19.10;99.90
26224;DHT22;14820;48.682;8.890;2023-05-07T09:30:06;19.20;99.90
26224;DHT22;14820;48.682;8.890;2023-05-07T09:32:38;19.30;99.90
26224;DHT22;14820;48.682;8.890;2023-05-07T09:35:04;19.30;99.90
26224;DHT22;14820;48.682;8.890;2023-05-07T09:37:31;19.40;99.90
26224;DHT22;14820;48.682;8.890;2023-05-07T09:39:58;19.50;99.90
26224;DHT22;14820;48.682;8.890;2023-05-07T09:42:24;19.50;99.90
26224;DHT22;14820;48.682;8.890;2023-05-07T09:44:51;19.50;99.90
26224;DHT22;14820;48.682;8.890;2023-05-07T09:47:19;19.60;99.90
26224;DHT22;14820;48.682;8.890;2023-05-07T09:49:47;19.70;99.90
26224;DHT22;14820;48.682;8.890;2023-05-07T09:52:14;19.80;99.90
26224;DHT22;14820;48.682;8.890;2023-05-07T09:54:40;19.90;99.90
26224;DHT22;14820;48.682;8.890;2023-05-07T10:02:04;20.10;99.90
26224;DHT22;14820;48.682;8.890;2023-05-07T10:04:31;20.10;99.90
26224;DHT22;14820;48.682;8.890;2023-05-07T10:06:59;20.20;99.90
26224;DHT22;14820;48.682;8.890;2023-05-07T10:09:26;20.30;99.90
26224;DHT22;14820;48.682;8.890;2023-05-07T10:11:52;20.20;99.90
26224;DHT22;14820;48.682;8.890;2023-05-07T10:14:20;20.10;99.90
26224;DHT22;14820;48.682;8.890;2023-05-07T10:16:47;20.20;99.90
26224;DHT22;14820;48.682;8.890;2023-05-07T10:19:14;20.20;99.90
26224;DHT22;14820;48.682;8.890;2023-05-07T10:21:44;20.30;99.90
26224;DHT22;14820;48.682;8.890;2023-05-07T10:24:21;20.30;99.90
26224;DHT22;14820;48.682;8.890;2023-05-07T10:26:52;20.40;99.90
26224;DHT22;14820;48.682;8.890;2023-05-07T10:39:21;20.90;99.90
26224;DHT22;14820;48.682;8.890;2023-05-07T10:41:48;20.90;99.90
26224;DHT22;14820;48.682;8.890;2023-05-07T10:52:24;21.50;99.90
26224;DHT22;14820;48.682;8.890;2023-05-07T10:55:19;21.50;99.90
26224;DHT22;14820;48.682;8.890;2023-05-07T10:57:47;21.50;99.90
26224;DHT22;14820;48.682;8.890;2023-05-07T11:03:05;21.30;99.90
26224;DHT22;14820;48.682;8.890;2023-05-07T11:05:33;21.30;99.90
26224;DHT22;14820;48.682;8.890;2023-05-07T11:08:00;21.20;99.90
26224;DHT22;14820;48.682;8.890;2023-05-07T11:13:15;21.10;99.90
26224;DHT22;14820;48.682;8.890;2023-05-07T11:15:48;21.00;99.90
26224;DHT22;14820;48.682;8.890;2023-05-07T11:18:16;21.00;99.90
26224;DHT22;14820;48.682;8.890;2023-05-07T11:20:45;20.90;99.90
26224;DHT22;14820;48.682;8.890;2023-05-07T11:28:36;20.70;99.90
26224;DHT22;14820;48.682;8.890;2023-05-07T11:31:02;20.70;99.90
26224;DHT22;14820;48.682;8.890;2023-05-07T11:33:29;20.60;99.90
26224;DHT22;14820;48.682;8.890;2023-05-07T11:35:57;20.60;99.90
26224;DHT22;14820;48.682;8.890;2023-05-07T11:38:23;20.60;99.90
26224;DHT22;14820;48.682;8.890;2023-05-07T11:40:49;20.50;99.90
26224;DHT22;14820;48.682;8.890;2023-05-07T11:43:16;20.50;99.90
26224;DHT22;14820;48.682;8.890;2023-05-07T11:45:41;20.40;99.90
26224;DHT22;14820;48.682;8.890;2023-05-07T11:48:07;20.10;99.90
26224;DHT22;14820;48.682;8.890;2023-05-07T11:50:33;19.90;99.90
26224;DHT22;14820;48.682;8.890;2023-05-07T11:52:58;19.60;99.90
26224;DHT22;14820;48.682;8.890;2023-05-07T11:55:24;19.40;99.90
26224;DHT22;14820;48.682;8.890;2023-05-07T11:57:51;19.20;99.90
26224;DHT22;14820;48.682;8.890;2023-05-07T12:00:17;19.10;99.90
26224;DHT22;14820;48.682;8.890;2023-05-07T12:02:45;18.80;99.90
26224;DHT22;14820;48.682;8.890;2023-05-07T12:05:10;18.60;99.90
26224;DHT22;14820;48.682;8.890;2023-05-07T12:07:36;18.50;99.90
26224;DHT22;14820;48.682;8.890;2023-05-07T12:10:08;18.40;99.90
26224;DHT22;14820;48.682;8.890;2023-05-07T12:12:41;18.40;99.90
26224;DHT22;14820;48.682;8.890;2023-05-07T12:15:09;18.30;99.90
26224;DHT22;14820;48.682;8.890;2023-05-07T12:17:35;18.20;99.90
26224;DHT22;14820;48.682;8.890;2023-05-07T12:20:01;18.20;99.90
26224;DHT22;14820;48.682;8.890;2023-05-07T12:22:27;18.20;99.90
26224;DHT22;14820;48.682;8.890;2023-05-07T12:24:57;18.20;99.90
26224;DHT22;14820;48.682;8.890;2023-05-07T12:27:24;18.10;99.90
26224;DHT22;14820;48.682;8.890;2023-05-07T12:29:50;18.00;99.90
26224;DHT22;14820;48.682;8.890;2023-05-07T12:32:18;18.00;99.90
26224;DHT22;14820;48.682;8.890;2023-05-07T12:34:45;18.00;99.90
26224;DHT22;14820;48.682;8.890;2023-05-07T12:37:11;18.00;99.90
26224;DHT22;14820;48.682;8.890;2023-05-07T12:39:38;18.00;99.90
26224;DHT22;14820;48.682;8.890;2023-05-07T12:42:04;18.00;99.90
26224;DHT22;14820;48.682;8.890;2023-05-07T12:44:31;17.90;99.90
26224;DHT22;14820;48.682;8.890;2023-05-07T12:46:57;17.90;99.90
26224;DHT22;14820;48.682;8.890;2023-05-07T12:49:23;17.90;99.90
26224;DHT22;14820;48.682;8.890;2023-05-07T12:51:50;17.80;99.90
26224;DHT22;14820;48.682;8.890;2023-05-07T12:54:32;17.80;99.90
26224;DHT22;14820;48.682;8.890;2023-05-07T12:57:09;17.80;99.90
26224;DHT22;14820;48.682;8.890;2023-05-07T12:59:40;17.80;99.90
26224;DHT22;14820;48.682;8.890;2023-05-07T13:02:07;17.80;99.90
26224;DHT22;14820;48.682;8.890;2023-05-07T13:04:32;17.70;99.90
26224;DHT22;14820;48.682;8.890;2023-05-07T13:06:59;17.70;99.90
26224;DHT22;14820;48.682;8.890;2023-05-07T13:09:25;17.60;99.90
26224;DHT22;14820;48.682;8.890;2023-05-07T13:11:51;17.50;99.90
26224;DHT22;14820;48.682;8.890;2023-05-07T13:14:16;17.50;99.90
26224;DHT22;14820;48.682;8.890;2023-05-07T13:16:42;17.20;99.90
26224;DHT22;14820;48.682;8.890;2023-05-07T13:19:08;17.00;99.90
26224;DHT22;14820;48.682;8.890;2023-05-07T13:21:33;16.90;99.90
26224;DHT22;14820;48.682;8.890;2023-05-07T13:23:59;16.90;99.90
26224;DHT22;14820;48.682;8.890;2023-05-07T13:26:25;16.80;99.90
26224;DHT22;14820;48.682;8.890;2023-05-07T13:28:54;16.70;99.90
26224;DHT22;14820;48.682;8.890;2023-05-07T13:31:20;16.60;99.90
26224;DHT22;14820;48.682;8.890;2023-05-07T13:33:46;16.50;99.90
26224;DHT22;14820;48.682;8.890;2023-05-07T13:36:12;16.40;99.90
26224;DHT22;14820;48.682;8.890;2023-05-07T13:38:39;16.10;99.90
26224;DHT22;14820;48.682;8.890;2023-05-07T13:41:05;16.00;99.90
26224;DHT22;14820;48.682;8.890;2023-05-07T13:43:30;15.90;99.90
26224;DHT22;14820;48.682;8.890;2023-05-07T13:45:59;15.80;99.90
26224;DHT22;14820;48.682;8.890;2023-05-07T13:48:24;15.70;99.90
26224;DHT22;14820;48.682;8.890;2023-05-07T13:50:50;15.60;99.90
26224;DHT22;14820;48.682;8.890;2023-05-07T13:53:17;15.60;99.90
26224;DHT22;14820;48.682;8.890;2023-05-07T13:55:44;15.50;99.90
26224;DHT22;14820;48.682;8.890;2023-05-07T13:58:10;15.40;99.90
26224;DHT22;14820;48.682;8.890;2023-05-07T14:00:35;15.40;99.90
26224;DHT22;14820;48.682;8.890;2023-05-07T14:03:01;15.30;99.90
26224;DHT22;14820;48.682;8.890;2023-05-07T14:05:27;15.30;99.90
26224;DHT22;14820;48.682;8.890;2023-05-07T14:07:57;15.30;99.90
26224;DHT22;14820;48.682;8.890;2023-05-07T14:10:23;15.30;99.90
26224;DHT22;14820;48.682;8.890;2023-05-07T14:12:49;15.20;99.90
26224;DHT22;14820;48.682;8.890;2023-05-07T14:15:15;15.10;99.90
26224;DHT22;14820;48.682;8.890;2023-05-07T14:17:41;15.10;99.90
26224;DHT22;14820;48.682;8.890;2023-05-07T14:20:08;15.20;99.90
26224;DHT22;14820;48.682;8.890;2023-05-07T14:22:34;15.30;99.90
26224;DHT22;14820;48.682;8.890;2023-05-07T14:24:59;15.30;99.90
26224;DHT22;14820;48.682;8.890;2023-05-07T14:27:25;15.30;99.90
26224;DHT22;14820;48.682;8.890;2023-05-07T14:29:51;15.50;99.90
26224;DHT22;14820;48.682;8.890;2023-05-07T14:32:20;15.50;99.90
26224;DHT22;14820;48.682;8.890;2023-05-07T14:34:46;15.60;99.90
26224;DHT22;14820;48.682;8.890;2023-05-07T14:37:12;15.70;99.90
26224;DHT22;14820;48.682;8.890;2023-05-07T14:39:38;15.70;99.90
26224;DHT22;14820;48.682;8.890;2023-05-07T14:42:03;15.70;99.90
26224;DHT22;14820;48.682;8.890;2023-05-07T14:44:29;15.70;99.90
26224;DHT22;14820;48.682;8.890;2023-05-07T14:46:55;15.70;99.90
26224;DHT22;14820;48.682;8.890;2023-05-07T14:49:21;15.70;99.90
26224;DHT22;14820;48.682;8.890;2023-05-07T14:51:47;15.70;99.90
26224;DHT22;14820;48.682;8.890;2023-05-07T14:54:14;15.80;99.90
26224;DHT22;14820;48.682;8.890;2023-05-07T14:56:40;15.70;99.90
26224;DHT22;14820;48.682;8.890;2023-05-07T14:59:07;15.70;99.90
26224;DHT22;14820;48.682;8.890;2023-05-07T15:01:34;15.70;99.90
26224;DHT22;14820;48.682;8.890;2023-05-07T15:04:02;15.80;99.90
26224;DHT22;14820;48.682;8.890;2023-05-07T15:06:28;15.70;99.90
26224;DHT22;14820;48.682;8.890;2023-05-07T15:08:54;15.70;99.90
26224;DHT22;14820;48.682;8.890;2023-05-07T15:11:20;15.60;99.90
26224;DHT22;14820;48.682;8.890;2023-05-07T15:13:46;15.70;99.90
26224;DHT22;14820;48.682;8.890;2023-05-07T15:16:11;15.70;99.90
26224;DHT22;14820;48.682;8.890;2023-05-07T15:18:37;15.60;99.90
26224;DHT22;14820;48.682;8.890;2023-05-07T15:21:02;15.60;99.90
26224;DHT22;14820;48.682;8.890;2023-05-07T15:23:28;15.60;99.90
26224;DHT22;14820;48.682;8.890;2023-05-07T15:25:54;15.70;99.90
26224;DHT22;14820;48.682;8.890;2023-05-07T15:28:19;15.70;99.90
26224;DHT22;14820;48.682;8.890;2023-05-07T15:30:45;15.70;99.90
26224;DHT22;14820;48.682;8.890;2023-05-07T15:33:11;15.70;99.90
26224;DHT22;14820;48.682;8.890;2023-05-07T15:35:36;15.70;99.90
26224;DHT22;14820;48.682;8.890;2023-05-07T15:38:02;15.70;99.90
26224;DHT22;14820;48.682;8.890;2023-05-07T15:40:28;15.70;99.90
26224;DHT22;14820;48.682;8.890;2023-05-07T15:42:55;15.70;99.90
26224;DHT22;14820;48.682;8.890;2023-05-07T15:45:22;15.80;99.90
26224;DHT22;14820;48.682;8.890;2023-05-07T15:47:48;15.80;99.90
26224;DHT22;14820;48.682;8.890;2023-05-07T15:50:13;15.90;99.90
26224;DHT22;14820;48.682;8.890;2023-05-07T15:52:39;15.90;99.90
26224;DHT22;14820;48.682;8.890;2023-05-07T15:55:06;15.90;99.90
26224;DHT22;14820;48.682;8.890;2023-05-07T15:57:32;16.00;99.90
26224;DHT22;14820;48.682;8.890;2023-05-07T15:59:58;16.00;99.90
26224;DHT22;14820;48.682;8.890;2023-05-07T16:02:23;16.00;99.90
26224;DHT22;14820;48.682;8.890;2023-05-07T16:04:49;16.10;99.90